createdAt,value
2018-11-22T12:17:45.735Z,1.50
2018-11-22T12:20:14.726Z,1.50
2018-11-22T12:22:44.243Z,1.50
2018-11-22T12:25:13.778Z,1.50
2018-11-22T12:27:42.749Z,1.60
2018-11-22T12:30:13.118Z,1.60
2018-11-22T12:32:46.740Z,1.50
2018-11-22T12:35:20.718Z,1.60
2018-11-22T12:37:54.174Z,1.60
2018-11-22T12:40:22.314Z,1.60
2018-11-22T12:42:50.948Z,1.60
2018-11-22T12:45:19.006Z,1.50
2018-11-22T12:47:48.306Z,1.60
2018-11-22T12:50:16.458Z,1.50
2018-11-22T12:52:44.522Z,1.60
2018-11-22T12:55:13.374Z,1.60
2018-11-22T12:57:41.610Z,1.60
2018-11-22T13:00:12.463Z,1.60
2018-11-22T13:02:40.821Z,1.60
2018-11-22T13:05:10.192Z,1.60
2018-11-22T13:07:39.106Z,1.60
2018-11-22T13:10:09.540Z,1.50
2018-11-22T13:12:38.027Z,1.50
2018-11-22T13:15:07.984Z,1.60
2018-11-22T13:17:36.202Z,1.50
2018-11-22T13:20:06.027Z,1.50
2018-11-22T13:22:34.230Z,1.50
2018-11-22T13:27:45.458Z,1.60
2018-11-22T13:30:17.074Z,1.50
2018-11-22T13:32:45.854Z,1.50
2018-11-22T13:35:14.922Z,1.60
2018-11-22T13:37:44.836Z,1.50
2018-11-22T13:40:13.382Z,1.60
2018-11-22T13:42:42.378Z,1.60
2018-11-22T13:45:13.601Z,1.60
2018-11-22T13:47:42.733Z,1.60
2018-11-22T13:50:16.798Z,1.60
2018-11-22T13:52:45.916Z,1.60
2018-11-22T14:00:16.273Z,1.60
2018-11-22T14:02:44.658Z,1.60
2018-11-22T14:05:12.902Z,1.60
2018-11-22T14:07:41.334Z,1.60
2018-11-22T14:10:12.194Z,1.60
2018-11-22T14:12:40.810Z,1.60
2018-11-22T14:15:14.302Z,1.60
2018-11-22T14:17:42.760Z,1.60
2018-11-22T14:20:15.138Z,1.60
2018-11-22T14:22:43.290Z,1.60
2018-11-22T14:25:12.588Z,1.50
2018-11-22T14:27:41.417Z,1.50
2018-11-22T14:30:11.404Z,1.50
2018-11-22T14:32:40.331Z,1.60
2018-11-22T14:35:10.038Z,1.50
2018-11-22T14:37:38.230Z,1.60
2018-11-22T14:40:08.923Z,1.50
2018-11-22T14:42:37.430Z,1.50
2018-11-22T14:45:06.470Z,1.50
2018-11-22T14:47:34.709Z,1.50
2018-11-22T14:50:04.594Z,1.50
2018-11-22T14:52:32.714Z,1.50
2018-11-22T14:55:00.917Z,1.50
2018-11-22T14:57:29.014Z,1.50
2018-11-22T14:59:57.154Z,1.50
2018-11-22T15:02:25.961Z,1.50
2018-11-22T15:04:54.194Z,1.50
2018-11-22T15:07:28.541Z,1.50
2018-11-22T15:09:50.572Z,1.50
2018-11-22T15:12:18.963Z,1.50
2018-11-22T15:14:47.642Z,1.50
2018-11-22T15:17:16.754Z,1.50
2018-11-22T15:19:45.107Z,1.50
2018-11-22T15:22:13.350Z,1.50
2018-11-22T15:24:41.459Z,1.50
2018-11-22T15:27:09.786Z,1.50
2018-11-22T15:29:37.882Z,1.50
2018-11-22T15:32:06.298Z,1.50
2018-11-22T15:34:34.454Z,1.50
2018-11-22T15:37:02.642Z,1.50
2018-11-22T15:39:30.792Z,1.50
2018-11-22T15:41:59.305Z,1.50
2018-11-22T15:44:27.434Z,1.50
2018-11-22T15:46:56.082Z,1.50
2018-11-22T15:49:24.425Z,1.50
2018-11-22T15:51:52.569Z,1.40
2018-11-22T15:54:21.689Z,1.50
2018-11-22T15:56:49.938Z,1.50
2018-11-22T15:59:18.029Z,1.50
2018-11-22T16:01:46.239Z,1.50
2018-11-22T16:04:14.551Z,1.40
2018-11-22T16:06:42.638Z,1.50
2018-11-22T16:09:11.970Z,1.50
2018-11-22T16:11:40.470Z,1.40
2018-11-22T16:14:08.634Z,1.40
2018-11-22T16:16:36.782Z,1.40
2018-11-22T16:19:05.901Z,1.40
2018-11-22T16:21:34.050Z,1.40
2018-11-22T16:24:02.235Z,1.40
2018-11-22T16:26:30.438Z,1.40
2018-11-22T16:28:58.759Z,1.40
2018-11-22T16:31:26.938Z,1.40
2018-11-22T16:33:55.134Z,1.40
2018-11-22T16:36:23.231Z,1.40
2018-11-22T16:38:51.601Z,1.40
2018-11-22T16:41:19.734Z,1.40
2018-11-22T16:43:47.906Z,1.30
2018-11-22T16:46:16.111Z,1.40
2018-11-22T16:48:44.269Z,1.30
2018-11-22T16:51:12.486Z,1.30
2018-11-22T16:53:40.607Z,1.30
2018-11-22T16:56:09.138Z,1.40
2018-11-22T16:58:37.321Z,1.30
2018-11-22T17:01:06.718Z,1.30
2018-11-22T17:03:34.894Z,1.30
2018-11-22T17:06:02.996Z,1.30
2018-11-22T17:08:31.194Z,1.30
2018-11-22T17:10:59.594Z,1.30
2018-11-22T17:13:27.914Z,1.30
2018-11-22T17:15:56.034Z,1.30
2018-11-22T17:18:24.119Z,1.30
2018-11-22T17:20:52.198Z,1.30
2018-11-22T17:23:20.330Z,1.30
2018-11-22T17:25:48.570Z,1.30
2018-11-22T17:28:20.502Z,1.30
2018-11-22T17:30:48.686Z,1.30
2018-11-22T17:33:16.806Z,1.20
2018-11-22T17:35:45.030Z,1.20
2018-11-22T17:38:14.252Z,1.20
2018-11-22T17:40:43.951Z,1.20
2018-11-22T17:43:12.899Z,1.20
2018-11-22T17:45:43.007Z,1.20
2018-11-22T17:48:11.498Z,1.20
2018-11-22T17:50:41.141Z,1.20
2018-11-22T17:53:11.266Z,1.20
2018-11-22T17:55:39.530Z,1.20
2018-11-22T17:58:07.710Z,1.20
2018-11-22T18:00:38.127Z,1.10
2018-11-22T18:03:06.855Z,1.20
2018-11-22T18:05:35.142Z,1.10
2018-11-22T18:08:03.414Z,1.10
2018-11-22T18:10:33.153Z,1.10
2018-11-22T18:13:02.738Z,1.10
2018-11-22T18:15:32.898Z,1.00
2018-11-22T18:18:01.068Z,1.10
2018-11-22T18:20:30.494Z,1.00
2018-11-22T18:22:59.673Z,1.10
2018-11-22T18:25:29.130Z,1.00
2018-11-22T18:27:57.234Z,1.10
2018-11-22T18:30:27.620Z,1.10
2018-11-22T18:32:57.082Z,1.10
2018-11-22T18:35:25.226Z,1.00
2018-11-22T18:37:53.510Z,1.00
2018-11-22T18:40:22.985Z,1.00
2018-11-22T18:42:53.701Z,1.00
2018-11-22T18:45:27.158Z,1.00
2018-11-22T18:47:55.924Z,0.90
2018-11-22T18:50:25.331Z,0.90
2018-11-22T18:52:53.618Z,0.90
2018-11-22T18:55:21.990Z,0.90
2018-11-22T18:57:50.214Z,0.90
2018-11-22T19:00:21.242Z,0.90
2018-11-22T19:02:49.905Z,0.90
2018-11-22T19:05:19.134Z,0.90
2018-11-22T19:07:48.946Z,0.90
2018-11-22T19:10:35.314Z,0.90
2018-11-22T19:13:04.865Z,0.90
2018-11-22T19:15:34.285Z,1.80
2018-11-22T19:18:02.653Z,0.90
2018-11-22T19:20:32.886Z,0.90
2018-11-22T19:23:02.032Z,0.90
2018-11-22T19:25:30.201Z,0.90
2018-11-22T19:27:59.785Z,0.90
2018-11-22T19:30:29.309Z,0.90
2018-11-22T19:32:58.754Z,0.90
2018-11-22T19:35:29.117Z,0.90
2018-11-22T19:37:57.301Z,0.90
2018-11-22T19:40:28.883Z,0.90
2018-11-22T19:42:58.379Z,0.90
2018-11-22T19:45:29.115Z,0.90
2018-11-22T19:47:57.306Z,0.90
2018-11-22T19:50:26.514Z,0.90
2018-11-22T19:52:55.599Z,0.90
2018-11-22T19:55:25.279Z,0.90
2018-11-22T19:57:54.767Z,0.90
2018-11-22T20:00:23.731Z,0.90
2018-11-22T20:02:52.679Z,0.90
2018-11-22T20:05:21.766Z,0.90
2018-11-22T20:07:51.454Z,0.80
2018-11-22T20:10:21.518Z,0.90
2018-11-22T20:12:49.714Z,0.90
2018-11-22T20:15:17.839Z,0.90
2018-11-22T20:17:46.831Z,0.90
2018-11-22T20:20:16.131Z,0.90
2018-11-22T20:22:44.354Z,0.90
2018-11-22T20:25:12.424Z,0.90
2018-11-22T20:27:41.025Z,0.90
2018-11-22T20:30:17.747Z,0.90
2018-11-22T20:32:46.219Z,0.90
2018-11-22T20:35:15.949Z,0.90
2018-11-22T20:37:44.935Z,0.90
2018-11-22T20:40:14.498Z,0.90
2018-11-22T20:42:42.825Z,0.90
2018-11-22T20:45:12.870Z,0.90
2018-11-22T20:51:13.931Z,0.90
2018-11-22T20:53:41.994Z,0.80
2018-11-22T20:56:10.118Z,0.90
2018-11-22T20:58:38.551Z,0.90
2018-11-22T21:01:06.666Z,0.80
2018-11-22T21:03:34.818Z,0.80
2018-11-22T21:06:17.795Z,0.80
2018-11-22T21:08:48.639Z,0.80
2018-11-22T21:11:13.991Z,0.80
2018-11-22T21:13:42.186Z,0.80
2018-11-22T21:16:10.349Z,0.80
2018-11-22T21:18:38.538Z,0.80
2018-11-22T21:21:21.310Z,0.80
2018-11-22T21:23:49.398Z,0.80
2018-11-22T21:26:17.571Z,0.80
2018-11-22T21:28:45.821Z,0.80
2018-11-22T21:31:14.239Z,0.80
2018-11-22T21:33:42.428Z,0.80
2018-11-22T21:36:10.971Z,0.80
2018-11-22T21:38:39.710Z,0.80
2018-11-22T21:41:08.061Z,0.80
2018-11-22T21:43:36.551Z,0.90
2018-11-22T21:46:04.734Z,0.80
2018-11-22T21:48:32.876Z,0.90
2018-11-22T21:51:01.093Z,0.90
2018-11-22T21:53:29.217Z,0.90
2018-11-22T21:55:57.502Z,0.90
2018-11-22T21:58:26.430Z,0.90
2018-11-22T22:00:54.536Z,0.90
2018-11-22T22:03:22.834Z,0.90
2018-11-22T22:05:50.909Z,0.90
2018-11-22T22:08:19.543Z,0.90
2018-11-22T22:10:48.351Z,0.90
2018-11-22T22:13:16.433Z,0.90
2018-11-22T22:15:44.945Z,0.90
2018-11-22T22:18:13.169Z,0.90
2018-11-22T22:20:41.324Z,0.90
2018-11-22T22:23:13.597Z,0.90
2018-11-22T22:25:37.774Z,0.90
2018-11-22T22:28:05.926Z,0.90
2018-11-22T22:30:34.721Z,0.90
2018-11-22T22:33:04.206Z,0.90
2018-11-22T22:35:32.886Z,0.90
2018-11-22T22:38:01.133Z,0.90
2018-11-22T22:40:30.334Z,0.90
2018-11-22T22:42:59.495Z,0.90
2018-11-22T22:45:29.158Z,0.90
2018-11-22T22:48:28.958Z,0.90
2018-11-22T22:50:57.054Z,0.90
2018-11-22T22:53:25.261Z,0.90
2018-11-22T22:55:54.878Z,0.90
2018-11-22T22:58:23.026Z,0.90
2018-11-22T23:00:52.117Z,0.90
2018-11-22T23:03:21.070Z,0.90
2018-11-22T23:05:49.368Z,0.90
2018-11-22T23:08:17.642Z,0.90
2018-11-22T23:10:46.454Z,0.90
2018-11-22T23:13:14.527Z,0.90
2018-11-22T23:15:42.839Z,0.90
2018-11-22T23:18:11.304Z,0.90
2018-11-22T23:20:39.458Z,0.90
2018-11-22T23:23:08.342Z,0.90
2018-11-22T23:25:37.383Z,0.90
2018-11-22T23:28:05.441Z,0.90
2018-11-22T23:30:34.942Z,1.00
2018-11-22T23:33:05.358Z,0.90
2018-11-22T23:35:33.430Z,0.90
2018-11-22T23:38:02.722Z,0.90
2018-11-22T23:40:31.587Z,0.90
2018-11-22T23:43:01.409Z,0.90
2018-11-22T23:45:30.593Z,0.90
2018-11-22T23:47:59.298Z,0.90
2018-11-22T23:50:29.230Z,0.90
2018-11-22T23:52:58.326Z,0.90
2018-11-22T23:55:26.621Z,1.00
2018-11-22T23:57:54.743Z,0.90
